Time;durP1;ratioP1;P1;durP2;ratioP2;P2;SDS_P1;SDS_P2;PMS_P1;PMS_P2;Temp;Humidity;BMP_temperature;BMP_pressure;BME280_temperature;BME280_humidity;BME280_pressure;Samples;Min_cycle;Max_cycle;Signal;HPM_P1;HPM_P2
2021/09/13 00:01:59;;;;;;;8.60;3.83;;;;;;;19.79;65.16;100791.47;5029859;28;20072;-88
2021/09/13 00:04:24;;;;;;;5.45;3.92;;;;;;;19.79;65.18;100794.13;5033004;28;20084;-88
2021/09/13 00:06:49;;;;;;;5.65;4.03;;;;;;;19.80;65.17;100794.94;5034063;28;20040;-88
2021/09/13 00:09:15;;;;;;;5.43;3.50;;;;;;;19.77;65.24;100788.13;5034800;28;20033;-88
2021/09/13 00:11:40;;;;;;;4.78;3.88;;;;;;;19.70;65.03;100784.34;5034462;28;20025;-88
2021/09/13 00:14:05;;;;;;;6.18;4.10;;;;;;;19.69;65.33;100793.34;5034387;28;20013;-87
2021/09/13 00:16:31;;;;;;;4.93;3.88;;;;;;;19.64;65.04;100789.47;5013906;28;20030;-88
2021/09/13 00:18:56;;;;;;;5.18;4.22;;;;;;;19.62;65.26;100789.63;5014618;28;20030;-88
2021/09/13 00:21:22;;;;;;;4.78;4.25;;;;;;;19.66;64.96;100783.00;5014587;28;20033;-88
2021/09/13 00:23:47;;;;;;;4.00;3.60;;;;;;;19.65;65.35;100789.31;5014750;28;20022;-88
2021/09/13 00:26:12;;;;;;;4.35;3.95;;;;;;;19.62;65.46;100792.28;5029735;28;20033;-88
2021/09/13 00:28:38;;;;;;;7.00;3.72;;;;;;;19.56;65.57;100783.06;5034180;28;20030;-88
2021/09/13 00:31:03;;;;;;;4.95;3.55;;;;;;;19.54;65.38;100785.06;5034120;28;20475;-88
2021/09/13 00:33:28;;;;;;;4.75;3.38;;;;;;;19.56;65.79;100787.56;5034171;28;20216;-88
2021/09/13 00:35:54;;;;;;;4.40;3.50;;;;;;;19.54;65.70;100789.56;5020446;28;20068;-88
2021/09/13 00:38:19;;;;;;;5.00;3.78;;;;;;;19.55;66.02;100785.88;5014102;28;20499;-88
2021/09/13 00:40:44;;;;;;;9.73;4.63;;;;;;;19.49;64.61;100781.19;5014362;28;20032;-88
2021/09/13 00:43:11;;;;;;;4.32;3.70;;;;;;;19.55;64.91;100791.22;5012921;28;20528;-88
2021/09/13 00:45:36;;;;;;;5.22;4.38;;;;;;;19.56;64.08;100784.91;5024224;28;20503;-88
2021/09/13 00:48:02;;;;;;;4.70;3.60;;;;;;;19.57;64.52;100783.94;5033958;28;20061;-88
2021/09/13 00:50:27;;;;;;;5.50;4.13;;;;;;;19.59;64.18;100781.97;5033872;28;20037;-88
2021/09/13 00:52:54;;;;;;;4.68;3.45;;;;;;;19.65;63.89;100786.66;5033803;28;20434;-88
2021/09/13 00:55:21;;;;;;;5.03;4.55;;;;;;;19.68;63.26;100775.69;5031489;28;20075;-88
2021/09/13 00:57:49;;;;;;;4.82;4.35;;;;;;;19.76;62.03;100767.78;5032761;28;20021;-89
2021/09/13 01:00:15;;;;;;;5.72;4.72;;;;;;;19.72;61.92;100771.75;5033618;28;20029;-88
2021/09/13 01:02:40;;;;;;;5.43;4.43;;;;;;;19.68;62.14;100759.69;5033561;28;20193;-88
2021/09/13 01:05:06;;;;;;;7.13;4.70;;;;;;;19.75;61.18;100765.28;5033364;28;20030;-88
2021/09/13 01:07:31;;;;;;;6.95;4.43;;;;;;;19.73;61.71;100754.78;5015976;28;20037;-88
2021/09/13 01:09:58;;;;;;;6.18;4.00;;;;;;;19.78;61.94;100757.81;5013614;28;20061;-89
2021/09/13 01:12:24;;;;;;;6.93;4.70;;;;;;;19.77;61.48;100753.47;5013642;28;20030;-88
2021/09/13 01:14:49;;;;;;;9.43;4.70;;;;;;;19.71;61.45;100759.44;5013610;28;20160;-88
2021/09/13 01:17:14;;;;;;;6.40;4.60;;;;;;;19.78;61.86;100760.47;5027502;28;20487;-88
2021/09/13 01:19:40;;;;;;;5.68;4.88;;;;;;;19.74;61.56;100756.44;5032680;28;20088;-89
2021/09/13 01:22:05;;;;;;;7.90;4.65;;;;;;;19.75;61.36;100755.47;5033294;28;20018;-88
2021/09/13 01:24:32;;;;;;;9.02;5.00;;;;;;;19.75;60.99;100750.13;5033113;28;20061;-88
2021/09/13 01:27:06;;;;;;;6.45;4.82;;;;;;;19.91;61.24;100743.25;5020526;28;20026;-88
2021/09/13 01:29:32;;;;;;;9.77;5.00;;;;;;;19.72;61.66;100739.78;5013654;28;20419;-88
2021/09/13 01:31:59;;;;;;;7.75;4.50;;;;;;;19.66;61.42;100745.69;5013408;28;20105;-88
2021/09/13 01:34:24;;;;;;;8.57;5.43;;;;;;;19.68;60.90;100748.22;5013178;28;20506;-88
2021/09/13 01:36:50;;;;;;;6.95;5.38;;;;;;;19.64;61.28;100742.34;5023110;28;20037;-88
2021/09/13 01:39:16;;;;;;;5.32;4.68;;;;;;;19.68;60.91;100737.56;5031582;28;20025;-88
2021/09/13 01:41:43;;;;;;;5.53;5.03;;;;;;;19.70;61.39;100741.72;5032866;28;20029;-88
2021/09/13 01:44:09;;;;;;;5.80;4.97;;;;;;;19.70;61.44;100747.06;5032806;28;20084;-88
2021/09/13 01:46:34;;;;;;;4.85;4.30;;;;;;;19.71;61.79;100743.44;5024102;28;20034;-88
2021/09/13 01:49:00;;;;;;;8.77;5.25;;;;;;;19.70;62.27;100744.41;5012995;28;20029;-88
2021/09/13 01:51:25;;;;;;;4.53;4.13;;;;;;;19.64;62.53;100742.34;5012954;28;20106;-89
2021/09/13 01:53:50;;;;;;;4.88;4.32;;;;;;;19.65;62.95;100735.19;5013061;28;20471;-88
2021/09/13 01:56:16;;;;;;;6.30;4.30;;;;;;;19.58;63.53;100737.66;5018067;28;20376;-88
2021/09/13 01:58:41;;;;;;;4.63;4.05;;;;;;;19.62;63.67;100744.34;5032510;28;20021;-88
2021/09/13 02:01:06;;;;;;;7.07;4.40;;;;;;;19.56;63.42;100729.81;5032436;28;20026;-88
2021/09/13 02:03:32;;;;;;;5.93;4.68;;;;;;;19.55;63.52;100737.94;5032756;28;20503;-88
2021/09/13 02:05:57;;;;;;;7.82;4.28;;;;;;;19.48;63.54;100732.41;5029402;28;20037;-88
2021/09/13 02:08:22;;;;;;;4.72;4.28;;;;;;;19.40;63.56;100735.84;5012536;28;20029;-88
2021/09/13 02:10:48;;;;;;;6.28;4.75;;;;;;;19.45;63.37;100716.75;5012380;28;20022;-88
2021/09/13 02:13:14;;;;;;;10.55;5.55;;;;;;;19.46;62.13;100720.25;5012347;28;20473;-88
2021/09/13 02:15:40;;;;;;;4.38;3.75;;;;;;;19.46;62.19;100715.75;5012686;28;20069;-88
2021/09/13 02:18:05;;;;;;;5.95;4.65;;;;;;;19.46;62.34;100717.59;5031818;28;20037;-89
2021/09/13 02:20:30;;;;;;;6.25;4.80;;;;;;;19.57;61.92;100714.69;5032303;28;20025;-88
2021/09/13 02:22:56;;;;;;;5.43;4.20;;;;;;;19.49;61.44;100722.59;5032248;28;20415;-88
2021/09/13 02:25:21;;;;;;;5.00;4.50;;;;;;;19.46;61.81;100723.75;5032144;28;20104;-88
2021/09/13 02:27:47;;;;;;;9.93;4.50;;;;;;;19.40;61.38;100719.88;5014579;28;20026;-88
2021/09/13 02:30:12;;;;;;;6.47;4.65;;;;;;;19.44;61.50;100731.06;5011361;28;20030;-88
2021/09/13 02:32:38;;;;;;;7.35;5.53;;;;;;;19.29;62.09;100714.78;5012290;28;20034;-88
2021/09/13 02:35:05;;;;;;;6.88;5.20;;;;;;;19.38;61.69;100721.84;5012211;28;20034;-88
2021/09/13 02:37:34;;;;;;;8.68;5.57;;;;;;;19.45;61.42;100722.09;5026382;28;20041;-88
2021/09/13 02:40:00;;;;;;;7.47;5.97;;;;;;;19.29;61.76;100720.09;5031979;28;20108;-88
2021/09/13 02:42:25;;;;;;;7.45;5.22;;;;;;;19.20;61.76;100718.38;5031781;28;20025;-88
2021/09/13 02:44:51;;;;;;;8.32;5.53;;;;;;;19.29;61.54;100717.44;5031782;28;20022;-88
2021/09/13 02:47:16;;;;;;;8.82;5.82;;;;;;;19.27;61.51;100713.25;5028396;28;20071;-88
2021/09/13 02:49:41;;;;;;;7.05;5.70;;;;;;;19.33;61.38;100720.63;5031856;28;20377;-88
2021/09/13 02:52:07;;;;;;;6.75;4.90;;;;;;;19.30;61.28;100727.09;5031793;28;20025;-88
2021/09/13 02:54:33;;;;;;;6.38;5.38;;;;;;;19.32;61.32;100722.47;5031864;28;20021;-89
2021/09/13 02:56:58;;;;;;;5.97;5.38;;;;;;;19.30;61.65;100715.63;5021624;28;20044;-88
2021/09/13 02:59:24;;;;;;;10.23;5.95;;;;;;;19.21;61.72;100718.22;5012191;28;20096;-88
2021/09/13 03:01:49;;;;;;;9.82;6.28;;;;;;;19.15;62.11;100715.31;5012716;28;20033;-88
2021/09/13 03:04:14;;;;;;;7.95;5.40;;;;;;;19.15;62.04;100716.16;5011774;28;20034;-88
2021/09/13 03:06:40;;;;;;;8.63;6.20;;;;;;;19.05;62.63;100714.56;5018511;28;20032;-89
2021/09/13 03:09:05;;;;;;;7.93;6.05;;;;;;;18.97;62.84;100708.16;5031389;28;20064;-89
2021/09/13 03:11:31;;;;;;;8.80;5.85;;;;;;;18.91;62.93;100711.44;5031602;28;20113;-88
2021/09/13 03:13:57;;;;;;;6.55;5.85;;;;;;;18.97;62.80;100710.81;5031655;28;20044;-88
2021/09/13 03:16:22;;;;;;;12.30;7.25;;;;;;;18.71;63.89;100717.84;5026688;28;20030;-88
2021/09/13 03:18:47;;;;;;;8.60;6.88;;;;;;;18.92;63.09;100718.44;5011755;28;20076;-88
2021/09/13 03:21:13;;;;;;;9.95;6.10;;;;;;;18.92;63.32;100712.28;5011735;28;20029;-88
2021/09/13 03:23:38;;;;;;;8.13;6.13;;;;;;;18.89;63.41;100718.72;5011907;28;20264;-89
2021/09/13 03:26:04;;;;;;;9.02;7.20;;;;;;;18.88;63.40;100714.41;5012897;28;20041;-88
2021/09/13 03:28:29;;;;;;;16.58;7.15;;;;;;;18.63;64.45;100716.75;5031314;28;20030;-89
2021/09/13 03:30:55;;;;;;;12.13;7.35;;;;;;;18.73;64.35;100716.72;5031593;28;20032;-88
2021/09/13 03:33:20;;;;;;;10.40;6.55;;;;;;;18.81;64.10;100700.84;5030190;28;20029;-89
2021/09/13 03:35:45;;;;;;;8.27;6.68;;;;;;;18.84;64.14;100705.06;5031323;28;20021;-89
2021/09/13 03:38:11;;;;;;;7.80;6.88;;;;;;;18.75;64.41;100697.94;5030537;28;20451;-89
2021/09/13 03:40:36;;;;;;;10.05;7.38;;;;;;;18.70;64.53;100701.06;5031323;28;20033;-89
2021/09/13 03:43:02;;;;;;;13.18;9.00;;;;;;;18.54;65.32;100701.72;5034853;28;20025;-89
2021/09/13 03:45:27;;;;;;;9.73;8.10;;;;;;;18.61;65.34;100702.78;5035264;28;20025;-88
2021/09/13 03:47:52;;;;;;;12.63;7.18;;;;;;;18.67;65.10;100703.19;5019005;28;20559;-88
2021/09/13 03:50:18;;;;;;;12.30;8.30;;;;;;;18.54;65.76;100706.19;5015394;28;20030;-89
2021/09/13 03:52:43;;;;;;;9.07;7.40;;;;;;;18.57;65.55;100716.53;5015287;28;20361;-88
2021/09/13 03:55:09;;;;;;;9.50;7.63;;;;;;;18.61;65.43;100707.28;5015127;28;20054;-89
2021/09/13 03:57:34;;;;;;;11.15;8.20;;;;;;;18.50;65.90;100710.94;5027938;28;20479;-88
2021/09/13 04:00:00;;;;;;;12.02;7.78;;;;;;;18.48;66.19;100712.94;5034900;28;20052;-88
2021/09/13 04:02:26;;;;;;;14.93;9.15;;;;;;;18.32;66.79;100713.56;5033080;28;20467;-88
2021/09/13 04:04:52;;;;;;;10.65;7.88;;;;;;;18.43;66.35;100712.56;5034836;28;20094;-89
2021/09/13 04:07:34;;;;;;;9.85;7.82;;;;;;;18.44;66.39;100711.56;5023864;28;20531;-88
2021/09/13 04:10:20;;;;;;;10.88;7.80;;;;;;;18.36;66.74;100711.47;5029322;28;20088;-88
2021/09/13 04:12:46;;;;;;;13.18;8.40;;;;;;;18.26;67.12;100721.31;5034398;28;20422;-89
2021/09/13 04:15:11;;;;;;;13.95;8.63;;;;;;;18.00;68.22;100719.31;5034513;28;21355;-88
2021/09/13 04:17:36;;;;;;;11.38;8.20;;;;;;;18.09;68.15;100721.09;5033729;28;20041;-88
2021/09/13 04:20:02;;;;;;;13.23;8.13;;;;;;;18.27;67.70;100725.66;5034298;28;20048;-88
2021/09/13 04:22:28;;;;;;;17.52;9.45;;;;;;;18.21;67.97;100727.06;5034396;28;20510;-88
2021/09/13 04:24:53;;;;;;;13.15;9.93;;;;;;;18.24;67.85;100727.59;5034151;28;20131;-89
2021/09/13 04:27:18;;;;;;;13.05;9.68;;;;;;;18.10;68.28;100725.41;5023798;28;20045;-89
2021/09/13 04:29:44;;;;;;;11.27;9.48;;;;;;;17.99;68.43;100723.78;5013289;28;20384;-88
2021/09/13 04:32:09;;;;;;;16.30;10.35;;;;;;;17.86;68.94;100714.47;5014428;28;20037;-88
2021/09/13 04:34:35;;;;;;;18.08;9.95;;;;;;;18.00;68.78;100721.97;5013161;28;20049;-88
2021/09/13 04:37:00;;;;;;;14.60;10.48;;;;;;;18.01;69.32;100721.81;5021338;28;20107;-89
2021/09/13 04:39:25;;;;;;;17.20;10.13;;;;;;;18.08;68.55;100719.41;5034056;28;20025;-88
2021/09/13 04:41:51;;;;;;;16.58;9.95;;;;;;;18.01;68.34;100726.31;5032723;28;20022;-89
2021/09/13 04:44:16;;;;;;;14.70;10.27;;;;;;;17.99;68.37;100717.59;5033991;28;20026;-88
2021/09/13 04:46:41;;;;;;;17.25;10.75;;;;;;;18.00;68.35;100727.28;5029077;28;20022;-89
2021/09/13 04:49:07;;;;;;;13.32;8.98;;;;;;;18.15;67.80;100727.66;5015295;28;20468;-88
2021/09/13 04:51:33;;;;;;;14.35;9.85;;;;;;;17.99;68.31;100730.91;5014655;28;20295;-88
2021/09/13 04:53:59;;;;;;;15.50;10.27;;;;;;;17.87;68.77;100732.91;5013444;28;20136;-88
2021/09/13 04:56:25;;;;;;;16.45;9.98;;;;;;;17.89;68.64;100732.75;5029327;28;20038;-89
2021/09/13 04:58:51;;;;;;;14.35;10.68;;;;;;;17.94;68.43;100730.50;5034018;28;20032;-88
2021/09/13 05:01:17;;;;;;;13.50;9.55;;;;;;;17.93;68.62;100735.00;5033952;28;20013;-89
2021/09/13 05:03:42;;;;;;;18.05;9.68;;;;;;;17.99;68.25;100729.09;5033593;28;20385;-88
2021/09/13 05:06:08;;;;;;;14.80;10.48;;;;;;;17.86;68.80;100725.09;5020134;28;20037;-89
2021/09/13 05:08:33;;;;;;;15.35;10.77;;;;;;;17.69;69.49;100723.97;5013834;28;20022;-89
2021/09/13 05:10:59;;;;;;;15.20;10.77;;;;;;;17.80;69.05;100729.13;5013768;28;20373;-89
2021/09/13 05:13:24;;;;;;;14.68;10.27;;;;;;;17.84;69.19;100723.38;5013649;28;20376;-89
2021/09/13 05:15:50;;;;;;;18.30;10.85;;;;;;;17.86;69.35;100711.81;5024086;28;20112;-89
2021/09/13 05:18:15;;;;;;;16.08;10.55;;;;;;;17.82;69.57;100714.69;5033332;28;20036;-89
2021/09/13 05:20:41;;;;;;;15.55;12.80;;;;;;;17.85;69.68;100716.25;5033198;28;20423;-89
2021/09/13 05:23:06;;;;;;;18.58;10.93;;;;;;;17.88;69.68;100718.63;5033389;28;20021;-89
2021/09/13 05:25:31;;;;;;;15.40;10.55;;;;;;;17.92;69.51;100705.91;5031061;28;20025;-88
2021/09/13 05:27:57;;;;;;;15.55;11.20;;;;;;;17.73;69.81;100702.31;5033203;28;20022;-89
2021/09/13 05:30:22;;;;;;;17.75;11.70;;;;;;;17.64;70.88;100697.84;5032957;28;20040;-88
2021/09/13 05:32:48;;;;;;;20.20;11.93;;;;;;;17.67;70.96;100708.16;5033085;28;20026;-88
2021/09/13 05:35:13;;;;;;;17.23;12.55;;;;;;;17.55;72.10;100699.50;5032714;28;20421;-88
2021/09/13 05:37:38;;;;;;;16.33;11.75;;;;;;;17.54;72.22;100707.66;5030611;28;20048;-88
2021/09/13 05:40:06;;;;;;;18.15;12.80;;;;;;;17.59;72.29;100710.69;5032556;28;20052;-88
2021/09/13 05:42:32;;;;;;;17.17;12.18;;;;;;;17.52;72.50;100710.44;5032822;28;20109;-88
2021/09/13 05:44:58;;;;;;;17.30;12.82;;;;;;;17.60;72.44;100712.38;5032883;28;20026;-88
2021/09/13 05:47:23;;;;;;;23.48;12.77;;;;;;;17.66;72.10;100709.16;5031634;28;20144;-88
2021/09/13 05:49:48;;;;;;;22.75;14.65;;;;;;;17.56;73.01;100711.00;5030744;28;20049;-88
2021/09/13 05:52:14;;;;;;;25.50;15.13;;;;;;;17.64;72.60;100719.91;5016088;28;20022;-89
2021/09/13 05:54:39;;;;;;;23.30;14.43;;;;;;;17.58;72.65;100715.19;5014887;28;20025;-88
2021/09/13 05:57:05;;;;;;;20.30;14.80;;;;;;;17.54;72.90;100718.25;5032326;28;20079;-88
2021/09/13 05:59:31;;;;;;;21.27;15.13;;;;;;;17.56;73.00;100714.47;5033638;28;20025;-88
2021/09/13 06:01:56;;;;;;;20.27;15.45;;;;;;;17.46;73.80;100718.97;5019813;28;20033;-87
2021/09/13 06:04:21;;;;;;;22.90;16.13;;;;;;;17.42;74.18;100723.72;5013105;28;20420;-87
2021/09/13 06:06:52;;;;;;;28.40;17.13;;;;;;;17.66;74.12;100730.41;5020328;28;20045;-96
2021/09/13 06:09:17;;;;;;;24.17;15.93;;;;;;;17.44;75.05;100724.41;5179663;23;20071;-93
2021/09/13 06:11:43;;;;;;;30.77;17.33;;;;;;;17.34;75.80;100733.38;5052442;28;20112;-96
2021/09/13 06:14:08;;;;;;;31.02;16.45;;;;;;;17.28;76.60;100728.59;5052033;28;20395;-90
2021/09/13 06:16:33;;;;;;;25.80;17.95;;;;;;;17.33;76.15;100729.84;5062961;28;20046;-89
2021/09/13 06:18:59;;;;;;;31.10;17.60;;;;;;;17.47;75.97;100733.06;5062311;28;20020;-90
2021/09/13 06:21:24;;;;;;;24.95;16.92;;;;;;;17.62;75.36;100742.28;5071891;28;20517;-90
2021/09/13 06:23:49;;;;;;;26.23;17.35;;;;;;;17.61;74.89;100736.16;5053823;28;20024;-90
2021/09/13 06:26:16;;;;;;;29.77;17.95;;;;;;;17.85;74.24;100734.84;5052055;28;20025;-94
2021/09/13 06:28:41;;;;;;;23.23;17.55;;;;;;;17.82;74.06;100729.81;5057814;28;20031;-89
2021/09/13 06:31:07;;;;;;;26.92;18.58;;;;;;;17.61;75.76;100732.63;5055269;28;20025;-89
2021/09/13 06:33:33;;;;;;;32.20;18.13;;;;;;;17.82;75.10;100738.59;5051966;28;20499;-89
2021/09/13 06:35:59;;;;;;;27.63;18.02;;;;;;;17.90;74.66;100737.91;5051712;28;20052;-89
2021/09/13 06:38:25;;;;;;;32.92;19.40;;;;;;;17.80;75.21;100740.56;5052596;28;20032;-89
2021/09/13 06:40:50;;;;;;;30.00;18.52;;;;;;;17.80;75.29;100743.22;5051690;28;20017;-88
2021/09/13 06:43:17;;;;;;;25.67;17.63;;;;;;;17.85;74.73;100732.19;5051665;28;20032;-88
2021/09/13 06:45:44;;;;;;;26.60;17.95;;;;;;;17.77;75.40;100737.34;5051693;28;20379;-89
2021/09/13 06:48:11;;;;;;;28.98;17.83;;;;;;;17.83;75.32;100745.63;5065885;28;20348;-89
2021/09/13 06:50:38;;;;;;;28.23;18.77;;;;;;;17.84;75.70;100741.16;5071264;28;20478;-89
2021/09/13 06:53:04;;;;;;;28.58;18.42;;;;;;;17.87;75.59;100732.91;5071403;28;20095;-88
2021/09/13 06:55:29;;;;;;;34.47;19.00;;;;;;;17.96;74.89;100734.69;5063031;28;20099;-89
2021/09/13 06:57:55;;;;;;;29.60;19.50;;;;;;;17.93;75.34;100736.78;5051372;28;20037;-88
2021/09/13 07:00:21;;;;;;;32.40;20.70;;;;;;;17.92;75.36;100729.81;5051534;28;20540;-89
2021/09/13 07:02:48;;;;;;;35.95;19.75;;;;;;;18.05;75.07;100738.31;5051578;28;20070;-89
2021/09/13 07:05:14;;;;;;;34.05;20.20;;;;;;;17.96;74.91;100725.88;5052236;28;20119;-89
2021/09/13 07:07:40;;;;;;;28.52;19.42;;;;;;;18.05;74.67;100735.66;5051587;28;20029;-89
2021/09/13 07:10:07;;;;;;;27.77;19.38;;;;;;;18.01;75.46;100731.63;5051548;28;20035;-88
2021/09/13 07:12:34;;;;;;;34.08;18.92;;;;;;;17.95;74.91;100732.16;5051422;28;20029;-88
2021/09/13 07:15:00;;;;;;;30.70;21.13;;;;;;;17.92;75.19;100732.47;5053426;28;20024;-89
2021/09/13 07:17:25;;;;;;;31.70;20.25;;;;;;;17.96;75.13;100731.19;5073869;28;20549;-88
2021/09/13 07:19:52;;;;;;;30.00;20.10;;;;;;;18.19;74.07;100732.53;5075271;28;20017;-89
2021/09/13 07:22:21;;;;;;;29.58;19.52;;;;;;;18.34;73.21;100734.69;5075326;28;20055;-89
2021/09/13 07:24:46;;;;;;;28.13;18.55;;;;;;;18.38;72.89;100738.72;5072154;28;20395;-89
2021/09/13 07:27:12;;;;;;;29.80;19.15;;;;;;;18.42;72.65;100729.47;5055193;28;20021;-89
2021/09/13 07:29:39;;;;;;;27.60;18.70;;;;;;;18.21;73.33;100730.56;5056120;28;20093;-88
2021/09/13 07:32:04;;;;;;;29.52;18.42;;;;;;;18.27;73.19;100733.63;5066184;28;20013;-88
2021/09/13 07:34:30;;;;;;;25.40;18.63;;;;;;;18.50;72.50;100729.56;5055116;28;20013;-88
2021/09/13 07:36:56;;;;;;;29.50;18.25;;;;;;;18.54;72.43;100730.97;5067390;28;20029;-89
2021/09/13 07:39:26;;;;;;;25.45;17.80;;;;;;;18.58;72.46;100740.31;5074927;28;20474;-88
2021/09/13 07:41:51;;;;;;;25.77;17.83;;;;;;;18.39;72.72;100730.63;5074995;28;20074;-88
2021/09/13 07:44:17;;;;;;;31.52;18.58;;;;;;;18.43;72.28;100733.81;5075403;28;20024;-88
2021/09/13 07:46:43;;;;;;;28.90;17.98;;;;;;;18.61;71.88;100740.00;5073783;28;20024;-88
2021/09/13 07:49:08;;;;;;;25.35;16.55;;;;;;;18.53;71.74;100737.25;5074763;28;20023;-88
2021/09/13 07:51:34;;;;;;;26.52;18.00;;;;;;;18.49;72.03;100722.59;5074810;28;20903;-88
2021/09/13 07:53:59;;;;;;;24.65;17.27;;;;;;;18.76;71.54;100736.84;5074784;28;20115;-88
2021/09/13 07:56:24;;;;;;;24.60;16.33;;;;;;;18.83;70.82;100727.31;5059919;28;20375;-88
2021/09/13 07:58:50;;;;;;;26.73;16.63;;;;;;;18.79;70.71;100731.25;5055057;28;20049;-88
2021/09/13 08:01:16;;;;;;;23.15;16.30;;;;;;;18.58;71.22;100723.50;5055085;28;20028;-88
2021/09/13 08:03:41;;;;;;;28.35;17.50;;;;;;;18.70;71.50;100726.81;5055261;28;20029;-88
2021/09/13 08:06:08;;;;;;;26.60;16.88;;;;;;;18.86;70.90;100727.03;5066646;28;20033;-88
2021/09/13 08:08:34;;;;;;;24.60;17.85;;;;;;;18.73;71.43;100727.34;5073695;28;20020;-88
2021/09/13 08:10:59;;;;;;;22.70;16.67;;;;;;;18.79;71.32;100721.47;5074897;28;20099;-88
2021/09/13 08:13:25;;;;;;;25.27;17.30;;;;;;;18.83;71.33;100728.16;5075065;28;20039;-88
2021/09/13 08:15:51;;;;;;;24.90;16.77;;;;;;;18.88;71.16;100725.06;5072670;28;20027;-88
2021/09/13 08:18:17;;;;;;;24.55;17.40;;;;;;;19.08;70.60;100724.91;5074263;28;20028;-88
2021/09/13 08:20:42;;;;;;;26.38;16.20;;;;;;;19.34;69.71;100728.47;5074706;28;20471;-88
2021/09/13 08:23:07;;;;;;;23.23;15.88;;;;;;;19.64;68.88;100736.19;5074554;28;20108;-89
2021/09/13 08:25:33;;;;;;;23.08;16.60;;;;;;;19.67;68.65;100726.06;5066050;28;20036;-88
2021/09/13 08:27:58;;;;;;;26.00;16.45;;;;;;;20.30;67.14;100732.97;5061237;28;20094;-88
2021/09/13 08:30:24;;;;;;;25.75;16.92;;;;;;;20.63;66.02;100726.94;5074138;28;20500;-89
2021/09/13 08:32:49;;;;;;;21.70;14.90;;;;;;;21.07;64.63;100729.38;5057910;28;20579;-88
2021/09/13 08:35:14;;;;;;;21.30;15.27;;;;;;;21.27;63.70;100738.75;5054414;28;20033;-89
2021/09/13 08:37:40;;;;;;;20.92;15.23;;;;;;;21.37;62.65;100742.09;5053979;28;20119;-88
2021/09/13 08:40:06;;;;;;;20.30;14.63;;;;;;;21.27;62.65;100738.75;5053968;28;20057;-89
2021/09/13 08:42:44;;;;;;;24.95;15.30;;;;;;;21.67;61.85;100752.31;5053907;28;20116;-88
2021/09/13 08:45:10;;;;;;;17.50;13.68;;;;;;;21.42;62.09;100743.44;5062594;28;20082;-88
2021/09/13 08:47:48;;;;;;;21.60;15.27;;;;;;;21.48;62.46;100745.47;5069477;28;20479;-88
2021/09/13 08:52:57;;;;;;;19.63;13.20;;;;;;;21.49;61.83;100749.81;5063389;28;20051;-88
2021/09/13 08:55:22;;;;;;;21.08;14.25;;;;;;;21.45;62.58;100745.81;5053604;28;20025;-88
2021/09/13 08:57:48;;;;;;;24.35;15.65;;;;;;;21.15;62.47;100756.94;5061762;28;20051;-89
2021/09/13 09:00:15;;;;;;;25.27;15.18;;;;;;;21.23;62.33;100764.13;5068296;28;20414;-88
2021/09/13 09:02:42;;;;;;;19.92;14.70;;;;;;;21.22;62.70;100751.75;5054723;28;20036;-88
2021/09/13 09:05:08;;;;;;;22.80;14.40;;;;;;;21.29;62.58;100759.97;5076125;28;20030;-88
2021/09/13 09:07:50;;;;;;;20.23;14.10;;;;;;;21.71;61.77;100746.44;5055572;28;20063;-88
2021/09/13 09:10:18;;;;;;;22.85;15.43;;;;;;;21.51;62.45;100748.63;5053482;28;20021;-88
2021/09/13 09:12:57;;;;;;;25.23;15.10;;;;;;;21.84;61.63;100748.63;5054467;28;20025;-89
2021/09/13 09:15:23;;;;;;;20.80;14.77;;;;;;;21.59;61.86;100745.13;5053929;28;20470;-89
2021/09/13 09:17:52;;;;;;;19.90;14.43;;;;;;;21.96;61.25;100754.44;5069527;28;20083;-89
2021/09/13 09:20:18;;;;;;;21.05;15.00;;;;;;;22.04;60.75;100749.06;5073197;28;20383;-89
2021/09/13 09:22:45;;;;;;;21.60;14.45;;;;;;;22.12;60.54;100756.25;5057767;28;20033;-90
2021/09/13 09:25:26;;;;;;;25.38;13.77;;;;;;;22.52;59.38;100749.94;5052999;28;20391;-89
2021/09/13 09:28:02;;;;;;;22.95;15.10;;;;;;;22.65;59.00;100745.84;5068637;28;20025;-89
2021/09/13 09:30:41;;;;;;;22.10;14.80;;;;;;;22.86;58.88;100746.06;5072845;28;20283;-89
2021/09/13 09:33:16;;;;;;;26.23;16.67;;;;;;;22.76;59.71;100742.78;5052916;28;20025;-89
2021/09/13 09:35:54;;;;;;;25.30;15.30;;;;;;;23.15;58.15;100745.41;5052983;28;20028;-89
2021/09/13 09:38:38;;;;;;;19.42;13.98;;;;;;;23.49;57.47;100743.31;5052929;28;20025;-89
2021/09/13 09:41:13;;;;;;;19.73;14.25;;;;;;;23.34;57.59;100752.16;5064193;28;20508;-89
2021/09/13 09:43:56;;;;;;;18.30;14.30;;;;;;;23.36;57.60;100743.91;5071405;28;20394;-89
2021/09/13 09:46:33;;;;;;;23.10;15.57;;;;;;;23.09;57.89;100738.09;5066039;28;20040;-89
2021/09/13 09:49:09;;;;;;;23.00;14.40;;;;;;;23.20;57.85;100744.88;5075204;28;20140;-92
2021/09/13 09:51:38;;;;;;;20.92;14.27;;;;;;;23.12;57.74;100731.53;5058394;28;20052;-89
2021/09/13 09:54:21;;;;;;;19.85;13.55;;;;;;;22.91;58.59;100740.22;5052512;28;20123;-90
2021/09/13 09:56:55;;;;;;;23.38;14.80;;;;;;;22.88;58.99;100730.66;5068092;28;20063;-89
2021/09/13 09:59:21;;;;;;;19.10;14.30;;;;;;;22.91;58.46;100735.69;5072650;28;20032;-90
2021/09/13 10:01:49;;;;;;;19.92;13.82;;;;;;;22.95;58.27;100730.81;5068374;28;20035;-89
2021/09/13 10:04:22;;;;;;;24.83;14.38;;;;;;;22.98;58.38;100727.75;5073323;28;20024;-89
2021/09/13 10:06:49;;;;;;;24.52;14.10;;;;;;;22.71;59.17;100729.09;5067694;28;20382;-89
2021/09/13 10:09:17;;;;;;;24.65;15.35;;;;;;;22.44;59.74;100730.41;5063175;28;20037;-90
2021/09/13 10:11:44;;;;;;;20.90;15.68;;;;;;;22.54;59.50;100723.00;5052393;28;20515;-89
2021/09/13 10:14:14;;;;;;;24.00;14.65;;;;;;;22.44;59.62;100730.41;5075084;28;20030;-89
2021/09/13 10:16:43;;;;;;;19.85;14.07;;;;;;;22.29;60.29;100722.28;5092056;28;20028;-89
2021/09/13 10:19:09;;;;;;;18.30;12.90;;;;;;;22.12;60.74;100735.69;5091329;28;20133;-89
2021/09/13 10:21:35;;;;;;;22.67;14.90;;;;;;;21.68;61.82;100730.78;5064519;28;20045;-89
2021/09/13 10:24:04;;;;;;;23.80;15.27;;;;;;;21.79;61.96;100719.69;5056641;28;20095;-89
2021/09/13 10:26:29;;;;;;;14.57;11.20;;;;;;;21.83;61.93;100711.34;5051920;28;20057;-89
2021/09/13 10:29:25;;;;;;;19.33;13.07;;;;;;;22.20;61.15;100724.13;5061911;28;20061;-90
2021/09/13 10:31:50;;;;;;;15.88;11.80;;;;;;;22.15;61.30;100705.91;5087580;28;20047;-89
2021/09/13 10:34:18;;;;;;;16.38;13.07;;;;;;;22.40;61.02;100711.19;5086612;28;20028;-90
2021/09/13 10:36:58;;;;;;;18.77;12.70;;;;;;;22.74;60.17;100704.66;5092064;28;20047;-90
2021/09/13 10:39:52;;;;;;;16.92;12.48;;;;;;;23.04;59.52;100696.78;5086184;28;20551;-90
2021/09/13 10:42:34;;;;;;;18.38;12.32;;;;;;;23.09;59.01;100689.06;5066159;28;20394;-89
2021/09/13 10:45:19;;;;;;;22.88;12.82;;;;;;;23.45;57.86;100704.50;5054903;28;20036;-89
2021/09/13 10:47:58;;;;;;;19.35;12.70;;;;;;;23.36;58.34;100693.00;5055547;28;20024;-89
2021/09/13 10:50:46;;;;;;;20.60;14.73;;;;;;;23.81;57.15;100687.75;5070580;28;20032;-90
2021/09/13 10:53:18;;;;;;;17.98;13.52;;;;;;;23.98;55.94;100686.56;5064245;28;20036;-91
2021/09/13 10:55:48;;;;;;;;;;;;;;;24.17;56.30;100681.63;5052031;28;20364;-92
2021/09/13 10:58:18;;;;;;;26.40;16.85;;;;;;;24.06;56.08;100685.63;5066102;28;20015;-89
2021/09/13 11:00:44;;;;;;;14.98;11.27;;;;;;;23.68;56.27;100673.13;5056730;28;20071;-89
2021/09/13 11:03:34;;;;;;;14.23;11.05;;;;;;;23.68;56.24;100670.44;5051208;28;20021;-89
2021/09/13 11:06:12;;;;;;;14.70;11.68;;;;;;;23.22;57.60;100670.53;5051603;28;20518;-89
2021/09/13 11:09:14;;;;;;;14.98;10.27;;;;;;;23.03;58.36;100679.06;5051602;28;20025;-89
2021/09/13 11:11:44;;;;;;;17.52;10.95;;;;;;;22.63;59.33;100672.94;5045543;28;20033;-89
2021/09/13 11:14:21;;;;;;;15.43;11.43;;;;;;;23.01;58.52;100670.34;5065435;28;20071;-89
2021/09/13 11:16:54;;;;;;;21.48;14.05;;;;;;;22.72;59.60;100674.56;5054781;28;20033;-90
2021/09/13 11:19:20;;;;;;;19.15;13.85;;;;;;;22.95;59.11;100667.38;5051251;28;20433;-89